CheckWX is a tool to help pilots better visualize weather data.  It is not intended as a substitute for an official pre-flight weather briefing.

12:28:02 UTC

KSBP TAF
San Luis County Regional Airport
San Luis Obispo, California, USA
KSBP 221122Z 2212/2312 VRB03KT P6SM BKN200 FM221400 VRB03KT P6SM BKN040 BKN200 FM222000 30010KT P6SM BKN120 FM230400 VRB03KT P6SM BKN100 FM230900 VRB03KT P6SM VCSH BKN020 OVC050

Mar-22@
12:00 UTC

Mar-22 @ 12:00 UTC

Mar-22@
14:00 UTC

Mar-22 @ 14:00 UTC

KSBP 221122Z 2212/2312 VRB03KT P6SM BKN200
Wind
  • Variable at 3 KTS
Cloud Levels
  • Broken at 20,000' AGL

Mar-22@
14:00 UTC

Mar-22 @ 14:00 UTC

Mar-22@
20:00 UTC

Mar-22 @ 20:00 UTC

FM221400 VRB03KT P6SM BKN040 BKN200

From

From Standard forecast or significant change

Wind
  • Variable at 3 KTS
Cloud Levels
  • Broken at 4,000' AGL
  • Broken at 20,000' AGL

Mar-22@
20:00 UTC

Mar-22 @ 20:00 UTC

Mar-23@
04:00 UTC

Mar-23 @ 04:00 UTC

FM222000 30010KT P6SM BKN120

From

From Standard forecast or significant change

Wind
  • 300° at 10 KTS
Cloud Levels
  • Broken at 12,000' AGL

Mar-23@
04:00 UTC

Mar-23 @ 04:00 UTC

Mar-23@
09:00 UTC

Mar-23 @ 09:00 UTC

FM230400 VRB03KT P6SM BKN100

From

From Standard forecast or significant change

Wind
  • Variable at 3 KTS
Cloud Levels
  • Broken at 10,000' AGL

Mar-23@
09:00 UTC

Mar-23 @ 09:00 UTC

Mar-23@
12:00 UTC

Mar-23 @ 12:00 UTC

FM230900 VRB03KT P6SM VCSH BKN020 OVC050

From

From Standard forecast or significant change

Wind
  • Variable at 3 KTS
Cloud Levels
  • Broken at 2,000' AGL
  • Overcast at 5,000' AGL